Time;durP1;ratioP1;P1;durP2;ratioP2;P2;SDS_P1;SDS_P2;PMS_P1;PMS_P2;Temp;Humidity;BMP_temperature;BMP_pressure;BME280_temperature;BME280_humidity;BME280_pressure;Samples;Min_cycle;Max_cycle;Signal;HPM_P1;HPM_P2
2022/06/07 00:00:38;;;;;;;1.00;0.90;;;22.20;99.90;;;;;;5019025;28;20467;-77
2022/06/07 00:03:06;;;;;;;2.20;0.90;;;22.20;99.90;;;;;;5021077;28;20484;-77
2022/06/07 00:05:35;;;;;;;0.90;0.90;;;22.20;99.90;;;;;;5022288;28;20488;-77
2022/06/07 00:08:03;;;;;;;1.00;1.00;;;22.20;99.90;;;;;;5023326;28;20464;-77
2022/06/07 00:10:33;;;;;;;0.70;0.70;;;22.20;99.90;;;;;;5015875;28;20903;-77
2022/06/07 00:13:02;;;;;;;1.40;1.03;;;22.20;99.90;;;;;;5021992;28;20563;-78
2022/06/07 00:15:30;;;;;;;0.80;0.80;;;22.10;99.90;;;;;;5016685;28;20464;-77
2022/06/07 00:17:58;;;;;;;1.10;1.00;;;22.20;99.90;;;;;;5013193;28;21281;-77
2022/06/07 00:20:26;;;;;;;1.70;1.10;;;22.00;99.90;;;;;;5021885;28;20470;-78
2022/06/07 00:22:55;;;;;;;1.20;1.03;;;21.90;99.90;;;;;;5019470;28;20492;-78
2022/06/07 00:25:24;;;;;;;3.90;1.73;;;21.90;99.90;;;;;;5020793;28;20693;-78
2022/06/07 00:27:53;;;;;;;0.80;0.80;;;21.80;99.90;;;;;;5015351;28;20456;-78
2022/06/07 00:30:22;;;;;;;1.10;0.70;;;21.80;99.90;;;;;;5018637;28;20467;-78
2022/06/07 00:32:50;;;;;;;1.03;0.97;;;21.80;99.90;;;;;;5021917;28;20487;-78
2022/06/07 00:35:19;;;;;;;1.10;0.80;;;21.90;99.90;;;;;;5022877;28;20524;-78
2022/06/07 00:37:47;;;;;;;1.47;1.00;;;21.80;99.90;;;;;;5013645;28;20599;-77
2022/06/07 00:40:16;;;;;;;2.40;0.90;;;21.80;99.90;;;;;;5023720;28;20529;-78
2022/06/07 00:42:44;;;;;;;0.80;0.80;;;21.70;99.90;;;;;;5016989;28;20484;-78
2022/06/07 00:45:16;;;;;;;1.70;1.03;;;21.80;99.90;;;;;;5012216;28;21008;-77
2022/06/07 00:47:45;;;;;;;1.00;1.00;;;21.70;99.90;;;;;;5015154;28;20468;-78
2022/06/07 00:50:20;;;;;;;1.00;0.90;;;21.70;99.90;;;;;;5015688;28;20460;-78
2022/06/07 00:52:49;;;;;;;1.13;1.07;;;21.60;99.90;;;;;;5017814;28;20489;-78
2022/06/07 00:55:18;;;;;;;0.70;0.70;;;21.70;99.90;;;;;;5012126;28;20455;-77
2022/06/07 00:57:46;;;;;;;0.93;0.90;;;21.70;99.90;;;;;;5018054;28;20519;-78
2022/06/07 01:00:18;;;;;;;1.30;1.00;;;21.70;99.90;;;;;;5016989;28;20457;-77
2022/06/07 01:02:46;;;;;;;1.70;0.80;;;21.80;99.90;;;;;;5013381;28;21016;-78
2022/06/07 01:05:14;;;;;;;1.13;1.03;;;21.70;99.90;;;;;;5016337;28;20495;-77
2022/06/07 01:10:46;;;;;;;1.10;1.00;;;21.70;99.90;;;;;;5025292;28;21158;-77
2022/06/07 01:13:20;;;;;;;1.20;0.90;;;21.70;99.90;;;;;;5027059;28;20487;-79
2022/06/07 01:15:51;;;;;;;1.00;0.90;;;21.70;99.90;;;;;;5018894;28;20462;-77
2022/06/07 01:18:19;;;;;;;0.90;0.90;;;21.70;99.90;;;;;;5013079;28;20531;-77
2022/06/07 01:20:47;;;;;;;1.33;0.80;;;21.70;99.90;;;;;;5016953;28;20956;-77
2022/06/07 01:23:17;;;;;;;0.90;0.90;;;21.60;99.90;;;;;;5021401;28;20491;-77
2022/06/07 01:25:45;;;;;;;3.53;0.90;;;21.60;99.90;;;;;;5014521;28;20953;-77
2022/06/07 01:28:14;;;;;;;1.10;1.00;;;21.60;99.90;;;;;;5021719;28;20964;-78
2022/06/07 01:30:42;;;;;;;1.10;1.03;;;21.60;99.90;;;;;;5014793;28;20463;-77
2022/06/07 01:33:10;;;;;;;0.90;0.90;;;21.50;99.90;;;;;;5014705;28;21016;-77
2022/06/07 01:35:38;;;;;;;2.20;1.07;;;21.50;99.90;;;;;;5006742;28;20449;-76
2022/06/07 01:38:06;;;;;;;0.90;0.90;;;21.60;99.90;;;;;;5017750;28;20464;-76
2022/06/07 01:43:21;;;;;;;0.60;0.60;;;21.50;99.90;;;;;;5021088;28;20537;-75
2022/06/07 01:45:50;;;;;;;0.70;0.70;;;21.50;99.90;;;;;;5018385;28;20480;-76
2022/06/07 01:48:18;;;;;;;0.80;0.80;;;21.40;99.90;;;;;;5017285;28;20453;-76
2022/06/07 01:50:46;;;;;;;1.27;0.80;;;21.40;99.90;;;;;;5020426;28;20466;-76
2022/06/07 01:53:14;;;;;;;1.17;0.87;;;21.40;99.90;;;;;;5013923;28;20950;-76
2022/06/07 01:55:44;;;;;;;1.40;0.70;;;21.30;99.90;;;;;;5012423;28;20464;-76
2022/06/07 01:58:12;;;;;;;0.70;0.70;;;21.30;99.90;;;;;;5012151;28;20512;-77
2022/06/07 02:00:40;;;;;;;4.10;0.90;;;21.30;99.90;;;;;;5015761;28;20461;-76
2022/06/07 02:03:08;;;;;;;0.70;0.70;;;21.30;99.90;;;;;;5021888;28;20466;-76
2022/06/07 02:05:37;;;;;;;0.80;0.70;;;21.30;99.90;;;;;;5016388;28;20479;-76
2022/06/07 02:08:06;;;;;;;0.70;0.70;;;21.30;99.90;;;;;;5015297;28;20879;-77
2022/06/07 02:10:34;;;;;;;2.07;0.90;;;21.20;99.90;;;;;;5017724;28;20500;-77
2022/06/07 02:13:04;;;;;;;0.80;0.80;;;21.20;99.90;;;;;;5023544;28;21197;-76
2022/06/07 02:15:32;;;;;;;0.63;0.63;;;21.20;99.90;;;;;;5026013;28;20459;-76
2022/06/07 02:18:01;;;;;;;0.80;0.70;;;21.20;99.90;;;;;;5016200;28;20465;-78
2022/06/07 02:20:29;;;;;;;1.00;0.63;;;21.20;99.90;;;;;;5016535;28;20448;-78
2022/06/07 02:22:57;;;;;;;0.60;0.60;;;21.20;99.90;;;;;;5013057;28;20480;-79
2022/06/07 02:25:25;;;;;;;1.00;0.90;;;21.20;99.90;;;;;;5016374;28;20555;-78
2022/06/07 02:27:54;;;;;;;0.80;0.70;;;21.10;99.90;;;;;;5010188;28;20483;-78
2022/06/07 02:30:23;;;;;;;1.60;0.60;;;21.10;99.90;;;;;;5011563;28;20551;-77
2022/06/07 02:32:51;;;;;;;0.70;0.70;;;21.10;99.90;;;;;;5016932;28;20484;-77
2022/06/07 02:35:20;;;;;;;5.20;2.20;;;21.10;99.90;;;;;;5015933;28;20450;-77
2022/06/07 02:37:48;;;;;;;0.60;0.60;;;21.00;99.90;;;;;;5016637;28;21001;-77
2022/06/07 02:40:16;;;;;;;0.60;0.60;;;21.10;99.90;;;;;;5019425;28;20969;-77
2022/06/07 02:42:44;;;;;;;0.70;0.70;;;21.00;99.90;;;;;;5021322;28;20485;-77
2022/06/07 02:45:13;;;;;;;0.60;0.60;;;21.00;99.90;;;;;;5009944;28;20472;-77
2022/06/07 02:47:43;;;;;;;0.73;0.73;;;21.00;99.90;;;;;;5013185;28;20483;-78
2022/06/07 02:50:12;;;;;;;0.60;0.60;;;21.00;99.90;;;;;;5024216;28;20458;-78
2022/06/07 02:52:40;;;;;;;1.40;1.30;;;21.00;99.90;;;;;;5025110;28;20477;-78
2022/06/07 02:55:09;;;;;;;1.83;0.80;;;21.00;99.90;;;;;;5018558;28;20449;-76
2022/06/07 02:57:37;;;;;;;0.90;0.70;;;21.00;99.90;;;;;;5016384;28;20475;-77
2022/06/07 03:00:09;;;;;;;0.80;0.80;;;21.00;99.90;;;;;;5025345;28;20479;-77
2022/06/07 03:02:38;;;;;;;0.70;0.70;;;21.00;99.90;;;;;;5021447;28;20574;-77
2022/06/07 03:05:10;;;;;;;0.77;0.77;;;21.00;99.90;;;;;;5020991;28;20542;-77
2022/06/07 03:07:39;;;;;;;4.20;0.80;;;21.00;99.90;;;;;;5018246;28;20462;-77
2022/06/07 03:10:09;;;;;;;0.77;0.77;;;20.90;99.90;;;;;;5017902;28;20956;-77
2022/06/07 03:12:38;;;;;;;1.00;0.70;;;21.00;99.90;;;;;;5021355;28;20460;-77
2022/06/07 03:15:09;;;;;;;2.27;0.90;;;21.00;99.90;;;;;;5014479;28;20510;-77
2022/06/07 03:17:38;;;;;;;0.97;0.67;;;20.90;99.90;;;;;;5023023;28;20456;-77
2022/06/07 03:20:09;;;;;;;0.80;0.80;;;20.90;99.90;;;;;;5017966;28;20463;-77
2022/06/07 03:22:38;;;;;;;1.53;0.63;;;20.80;99.90;;;;;;5020615;28;20480;-77
2022/06/07 03:25:07;;;;;;;0.70;0.70;;;20.80;99.90;;;;;;5022020;28;20476;-76
2022/06/07 03:27:37;;;;;;;0.80;0.80;;;20.90;99.90;;;;;;5019529;28;20837;-77
2022/06/07 03:30:07;;;;;;;0.70;0.70;;;20.90;99.90;;;;;;5022365;28;20477;-77
2022/06/07 03:32:35;;;;;;;1.33;0.60;;;20.90;99.90;;;;;;5020040;28;20477;-77
2022/06/07 03:35:04;;;;;;;0.73;0.63;;;20.90;99.90;;;;;;5021180;28;20461;-77
2022/06/07 03:37:34;;;;;;;0.70;0.70;;;20.90;99.90;;;;;;5019028;28;20456;-77
2022/06/07 03:40:02;;;;;;;0.90;0.70;;;20.90;99.90;;;;;;5018633;28;20468;-77
2022/06/07 03:42:30;;;;;;;1.10;0.70;;;20.90;99.90;;;;;;5022017;28;20484;-78
2022/06/07 03:44:58;;;;;;;0.77;0.60;;;20.80;99.90;;;;;;5021047;28;20481;-77
2022/06/07 03:47:27;;;;;;;0.70;0.70;;;20.80;99.90;;;;;;5024712;28;20444;-78
2022/06/07 03:49:55;;;;;;;0.57;0.57;;;20.70;99.90;;;;;;5020631;28;20506;-78
2022/06/07 03:52:23;;;;;;;0.80;0.80;;;20.70;99.90;;;;;;5023699;28;20476;-78
2022/06/07 03:54:53;;;;;;;0.70;0.70;;;20.60;99.90;;;;;;5024724;28;20460;-77
2022/06/07 03:57:21;;;;;;;0.77;0.77;;;20.70;99.90;;;;;;5015718;28;20476;-77
2022/06/07 03:59:49;;;;;;;1.43;0.70;;;20.60;99.90;;;;;;5018645;28;20453;-78
2022/06/07 04:02:17;;;;;;;2.90;0.60;;;20.50;99.90;;;;;;5012624;28;20478;-78
2022/06/07 04:04:45;;;;;;;0.67;0.60;;;20.50;99.90;;;;;;5014797;28;20540;-78
2022/06/07 04:10:01;;;;;;;1.63;0.70;;;20.40;99.90;;;;;;5020693;28;20479;-77
2022/06/07 04:12:29;;;;;;;1.10;0.70;;;20.40;99.90;;;;;;5019727;28;20523;-77
2022/06/07 04:14:57;;;;;;;0.60;0.60;;;20.40;99.90;;;;;;5014660;28;20464;-77
2022/06/07 04:17:25;;;;;;;0.60;0.60;;;20.30;99.90;;;;;;5017671;28;20511;-77
2022/06/07 04:19:53;;;;;;;1.13;0.70;;;20.40;99.90;;;;;;5020191;28;20526;-76
2022/06/07 04:22:22;;;;;;;0.60;0.60;;;20.50;99.90;;;;;;5018350;28;20527;-77
2022/06/07 04:24:50;;;;;;;1.17;0.53;;;20.30;99.90;;;;;;5024918;28;20459;-78
2022/06/07 04:27:19;;;;;;;0.67;0.67;;;20.40;99.90;;;;;;5028818;28;21039;-77
2022/06/07 04:29:47;;;;;;;1.57;0.60;;;20.40;99.90;;;;;;5020016;28;20997;-77
2022/06/07 04:32:16;;;;;;;0.83;0.70;;;20.40;99.90;;;;;;5016362;28;20469;-76
2022/06/07 04:34:45;;;;;;;0.70;0.70;;;20.40;99.90;;;;;;5016547;28;20444;-76
2022/06/07 04:37:13;;;;;;;0.93;0.90;;;20.40;99.90;;;;;;5017039;28;20441;-77
2022/06/07 04:39:41;;;;;;;0.60;0.60;;;20.40;99.90;;;;;;5019478;28;20457;-79
2022/06/07 04:42:10;;;;;;;0.73;0.70;;;20.40;99.90;;;;;;5014774;28;20559;-81
2022/06/07 04:44:39;;;;;;;0.80;0.80;;;20.40;99.90;;;;;;5019376;28;20460;-80
2022/06/07 04:47:07;;;;;;;0.70;0.70;;;20.30;99.90;;;;;;5013557;28;20480;-80
2022/06/07 04:49:36;;;;;;;0.70;0.70;;;20.30;99.90;;;;;;5020393;28;20460;-81
2022/06/07 04:52:05;;;;;;;0.80;0.80;;;20.20;99.90;;;;;;5023222;28;20480;-81
2022/06/07 04:54:49;;;;;;;2.13;0.80;;;20.20;99.90;;;;;;5017554;28;20811;-81
2022/06/07 04:57:18;;;;;;;0.70;0.70;;;20.10;99.90;;;;;;5021326;28;20464;-81
2022/06/07 04:59:47;;;;;;;1.00;0.90;;;20.10;99.90;;;;;;5022433;28;20457;-81
2022/06/07 05:02:16;;;;;;;0.90;0.80;;;20.20;99.90;;;;;;5021430;28;20472;-81
2022/06/07 05:04:45;;;;;;;0.80;0.80;;;20.30;99.90;;;;;;5012737;28;20984;-82
2022/06/07 05:07:13;;;;;;;0.90;0.80;;;20.30;99.90;;;;;;5021394;28;20924;-82
2022/06/07 05:09:42;;;;;;;0.70;0.70;;;20.20;99.90;;;;;;5022871;28;20461;-82
2022/06/07 05:12:11;;;;;;;0.70;0.70;;;20.20;99.90;;;;;;5018183;28;21056;-81
2022/06/07 05:14:40;;;;;;;0.73;0.73;;;20.20;99.90;;;;;;5023688;28;20613;-81
2022/06/07 05:17:10;;;;;;;1.50;1.20;;;20.20;99.90;;;;;;5018880;28;20535;-80
2022/06/07 05:19:38;;;;;;;0.70;0.70;;;20.20;99.90;;;;;;5021057;28;20467;-81
2022/06/07 05:22:07;;;;;;;0.80;0.70;;;20.10;99.90;;;;;;5015445;28;20472;-81
2022/06/07 05:24:35;;;;;;;1.10;1.00;;;20.10;99.90;;;;;;5018704;28;21186;-80
2022/06/07 05:27:06;;;;;;;1.30;0.80;;;20.10;99.90;;;;;;5019130;28;20488;-80
2022/06/07 05:29:40;;;;;;;2.20;0.80;;;20.20;99.90;;;;;;5019211;28;20471;-81
2022/06/07 05:32:10;;;;;;;0.90;0.70;;;20.20;99.90;;;;;;5019423;28;20472;-81
2022/06/07 05:34:38;;;;;;;1.43;0.73;;;20.30;99.90;;;;;;5022564;28;20469;-80
2022/06/07 05:37:07;;;;;;;0.93;0.93;;;20.40;99.90;;;;;;5020707;28;20453;-81
2022/06/07 05:39:35;;;;;;;1.27;1.17;;;20.30;99.90;;;;;;5024006;28;20503;-81
2022/06/07 05:42:04;;;;;;;0.80;0.80;;;20.40;99.90;;;;;;5018586;28;20480;-81
2022/06/07 05:44:32;;;;;;;1.00;1.00;;;20.40;99.90;;;;;;5011602;28;20457;-81
2022/06/07 05:47:02;;;;;;;0.80;0.80;;;20.40;99.90;;;;;;5009098;28;20503;-81
2022/06/07 05:49:32;;;;;;;1.43;1.00;;;20.40;99.90;;;;;;5020098;28;20839;-82
2022/06/07 05:52:01;;;;;;;0.80;0.80;;;20.40;99.90;;;;;;5022846;28;20480;-82
2022/06/07 05:54:30;;;;;;;1.10;0.80;;;20.40;99.90;;;;;;5019133;28;21013;-81
2022/06/07 05:56:59;;;;;;;1.50;0.90;;;20.40;99.90;;;;;;5018066;28;20525;-82
2022/06/07 05:59:27;;;;;;;0.83;0.83;;;20.40;99.90;;;;;;5016697;28;20477;-81
2022/06/07 06:01:55;;;;;;;2.53;1.00;;;20.30;99.90;;;;;;5020984;28;20555;-82
2022/06/07 06:04:25;;;;;;;1.00;0.90;;;20.30;99.90;;;;;;5011708;28;20453;-82
2022/06/07 06:06:58;;;;;;;1.10;1.00;;;20.30;99.90;;;;;;5019394;28;20582;-82
2022/06/07 06:12:12;;;;;;;1.23;0.90;;;20.30;99.90;;;;;;5017932;28;20480;-81
2022/06/07 06:14:40;;;;;;;4.20;0.80;;;20.30;99.90;;;;;;5014654;28;20452;-81
2022/06/07 06:17:08;;;;;;;0.93;0.90;;;20.20;99.90;;;;;;5016005;28;20449;-81
2022/06/07 06:19:41;;;;;;;0.90;0.90;;;20.20;99.90;;;;;;5017636;28;20463;-82
2022/06/07 06:22:11;;;;;;;0.90;0.90;;;20.40;99.90;;;;;;5025772;28;20854;-82
2022/06/07 06:24:40;;;;;;;1.30;1.20;;;20.30;99.90;;;;;;5022639;28;20568;-81
2022/06/07 06:27:08;;;;;;;2.60;1.00;;;20.20;99.90;;;;;;5020733;28;20482;-81
2022/06/07 06:29:37;;;;;;;1.10;0.83;;;20.10;99.90;;;;;;5020974;28;20989;-82
2022/06/07 06:32:07;;;;;;;0.80;0.80;;;20.00;99.90;;;;;;5016539;28;20503;-82
2022/06/07 06:34:35;;;;;;;0.80;0.80;;;20.10;99.90;;;;;;5012102;28;20824;-81
2022/06/07 06:37:04;;;;;;;2.20;1.17;;;20.30;99.90;;;;;;5021760;28;20482;-81
2022/06/07 06:39:33;;;;;;;1.47;1.03;;;20.50;99.90;;;;;;5026993;28;20536;-82
2022/06/07 06:42:02;;;;;;;1.07;0.70;;;20.60;99.90;;;;;;5022862;28;20483;-82
2022/06/07 06:44:30;;;;;;;0.90;0.90;;;20.60;99.90;;;;;;5028870;28;20460;-82
2022/06/07 06:47:00;;;;;;;1.40;1.10;;;20.70;99.90;;;;;;5024896;28;20487;-82
2022/06/07 06:49:28;;;;;;;1.10;1.10;;;20.80;99.90;;;;;;5022983;28;21156;-81
2022/06/07 06:52:03;;;;;;;1.73;1.00;;;20.80;99.90;;;;;;5027248;28;21848;-81
2022/06/07 06:54:33;;;;;;;1.20;1.10;;;20.90;99.90;;;;;;5025239;28;20455;-81
2022/06/07 06:57:01;;;;;;;2.60;1.10;;;21.00;99.90;;;;;;5020990;28;20442;-82
2022/06/07 06:59:30;;;;;;;2.60;1.13;;;21.00;99.90;;;;;;5015125;28;20477;-81
2022/06/07 07:01:59;;;;;;;1.67;0.90;;;20.90;99.90;;;;;;5021676;28;20481;-82
2022/06/07 07:04:27;;;;;;;1.87;0.90;;;20.90;99.90;;;;;;5020417;28;20472;-82
2022/06/07 07:06:55;;;;;;;1.00;0.90;;;21.00;99.90;;;;;;5018673;28;20484;-82
2022/06/07 07:09:26;;;;;;;1.33;0.90;;;21.20;99.90;;;;;;5022059;28;20458;-82
2022/06/07 07:12:00;;;;;;;0.77;0.77;;;21.20;99.90;;;;;;5024149;28;20471;-82
2022/06/07 07:14:29;;;;;;;0.90;0.80;;;21.30;99.90;;;;;;5024167;28;20834;-82
2022/06/07 07:16:57;;;;;;;1.10;0.80;;;21.20;99.90;;;;;;5024834;28;20512;-82
2022/06/07 07:19:25;;;;;;;1.00;0.90;;;21.20;99.90;;;;;;5028648;28;20463;-82
2022/06/07 07:21:53;;;;;;;1.07;0.97;;;21.20;99.90;;;;;;5028465;28;21356;-84
2022/06/07 07:24:24;;;;;;;1.10;1.00;;;21.30;99.90;;;;;;5027091;28;20463;-82
2022/06/07 07:26:53;;;;;;;1.43;0.73;;;21.40;99.90;;;;;;5028149;28;20447;-82
2022/06/07 07:29:24;;;;;;;1.60;0.77;;;21.50;99.90;;;;;;5021604;28;20464;-82
2022/06/07 07:31:52;;;;;;;0.70;0.63;;;21.50;99.90;;;;;;5028385;28;20466;-82
2022/06/07 07:34:21;;;;;;;0.80;0.63;;;21.60;99.90;;;;;;5020565;28;20451;-83
2022/06/07 07:36:51;;;;;;;1.37;0.80;;;21.60;99.90;;;;;;5030621;28;20448;-82
2022/06/07 07:39:22;;;;;;;0.90;0.90;;;21.60;99.90;;;;;;5029563;28;21025;-82
2022/06/07 07:41:51;;;;;;;0.70;0.70;;;21.60;99.90;;;;;;5021723;28;20460;-83
2022/06/07 07:44:23;;;;;;;0.80;0.80;;;21.60;99.90;;;;;;5030850;28;20464;-82
2022/06/07 07:46:53;;;;;;;1.00;0.87;;;21.70;99.90;;;;;;5030366;28;20460;-82
2022/06/07 07:49:22;;;;;;;1.93;0.70;;;21.70;99.90;;;;;;5019837;28;20513;-82
2022/06/07 07:51:55;;;;;;;0.60;0.60;;;21.70;99.90;;;;;;5032502;28;20497;-82
2022/06/07 07:54:24;;;;;;;1.13;0.63;;;21.70;99.90;;;;;;5021969;28;20460;-82
2022/06/07 07:56:53;;;;;;;0.80;0.80;;;21.70;99.90;;;;;;5025318;28;20982;-83
2022/06/07 07:59:24;;;;;;;1.03;0.80;;;21.80;99.90;;;;;;5020184;28;20462;-82
2022/06/07 08:01:53;;;;;;;0.80;0.80;;;21.80;99.90;;;;;;5020924;28;20471;-82
2022/06/07 08:04:21;;;;;;;0.80;0.80;;;21.80;99.90;;;;;;5017710;28;20462;-82
2022/06/07 08:06:50;;;;;;;0.70;0.70;;;21.80;99.90;;;;;;5023363;28;20584;-82
2022/06/07 08:09:19;;;;;;;0.80;0.70;;;21.80;99.90;;;;;;5022597;28;20534;-82
2022/06/07 08:11:47;;;;;;;1.00;0.77;;;21.80;99.90;;;;;;5031464;28;20489;-84
2022/06/07 08:14:18;;;;;;;0.70;0.70;;;21.80;99.90;;;;;;5015889;28;21063;-81
2022/06/07 08:16:49;;;;;;;0.70;0.70;;;21.80;99.90;;;;;;5018588;28;20473;-82
2022/06/07 08:19:18;;;;;;;0.90;0.80;;;21.80;99.90;;;;;;5023431;28;20449;-82
2022/06/07 08:21:47;;;;;;;0.87;0.73;;;21.90;99.90;;;;;;5019422;28;20982;-82
2022/06/07 08:24:18;;;;;;;1.23;1.13;;;22.00;99.90;;;;;;5030903;28;20532;-82
2022/06/07 08:26:49;;;;;;;1.40;1.13;;;22.00;99.90;;;;;;5019854;28;20463;-82
2022/06/07 08:29:19;;;;;;;0.93;0.83;;;22.00;99.90;;;;;;5017070;28;20879;-82
2022/06/07 08:31:49;;;;;;;1.63;0.80;;;22.10;99.90;;;;;;5027730;28;20467;-82
2022/06/07 08:39:50;;;;;;;1.37;0.70;;;22.00;99.90;;;;;;5027849;28;21307;-82
2022/06/07 08:42:25;;;;;;;0.90;0.90;;;22.10;99.90;;;;;;5030583;28;20472;-82
2022/06/07 08:44:58;;;;;;;0.67;0.67;;;22.10;99.90;;;;;;5030217;28;20452;-82
2022/06/07 08:47:34;;;;;;;0.77;0.70;;;22.10;99.90;;;;;;5022025;28;20442;-82
2022/06/07 08:50:08;;;;;;;0.77;0.70;;;22.20;99.90;;;;;;5028875;28;20459;-82
2022/06/07 08:52:37;;;;;;;0.80;0.77;;;22.30;99.90;;;;;;5013509;28;20483;-77
2022/06/07 08:55:15;;;;;;;0.90;0.70;;;22.30;99.90;;;;;;5020518;28;20457;-77
2022/06/07 08:57:46;;;;;;;0.80;0.80;;;22.30;99.90;;;;;;5017592;28;20448;-78
2022/06/07 09:00:20;;;;;;;0.80;0.80;;;22.40;99.90;;;;;;5016039;28;20449;-77
2022/06/07 09:03:25;;;;;;;0.70;0.70;;;22.30;99.90;;;;;;5018771;28;20503;-78
2022/06/07 09:06:00;;;;;;;0.93;0.70;;;22.30;99.90;;;;;;5016261;28;20466;-77
2022/06/07 09:08:35;;;;;;;0.60;0.60;;;22.30;99.90;;;;;;5017946;28;20481;-77
2022/06/07 09:13:55;;;;;;;0.60;0.60;;;22.30;99.90;;;;;;5018533;28;20476;-78
2022/06/07 09:16:24;;;;;;;0.60;0.60;;;22.40;99.90;;;;;;5025564;28;20467;-78
2022/06/07 09:18:53;;;;;;;0.70;0.70;;;22.50;99.90;;;;;;5023240;28;20441;-78
2022/06/07 09:21:30;;;;;;;1.77;0.50;;;22.40;99.90;;;;;;5021046;28;20998;-78
2022/06/07 09:23:59;;;;;;;0.80;0.67;;;22.50;99.90;;;;;;5013245;28;20484;-77
2022/06/07 09:26:31;;;;;;;0.50;0.50;;;22.40;99.90;;;;;;5014698;28;20982;-78
2022/06/07 09:29:13;;;;;;;1.00;0.60;;;22.30;99.90;;;;;;5017628;28;20488;-77
2022/06/07 09:31:44;;;;;;;1.10;0.60;;;22.20;99.90;;;;;;5017127;28;20797;-78
2022/06/07 09:34:21;;;;;;;0.70;0.70;;;22.20;99.90;;;;;;5008963;28;20543;-77
2022/06/07 09:36:58;;;;;;;0.57;0.57;;;22.10;99.90;;;;;;5016051;28;20467;-78
2022/06/07 09:39:30;;;;;;;0.63;0.63;;;22.10;99.90;;;;;;5013243;28;20453;-81
2022/06/07 09:42:08;;;;;;;0.50;0.50;;;22.20;99.90;;;;;;5018426;28;20527;-82
2022/06/07 09:44:40;;;;;;;0.60;0.57;;;22.30;99.90;;;;;;5020248;28;20495;-82
2022/06/07 09:47:14;;;;;;;0.60;0.60;;;22.30;99.90;;;;;;5019338;28;20457;-81
2022/06/07 09:49:45;;;;;;;0.50;0.50;;;22.40;99.90;;;;;;5025318;28;21025;-82
2022/06/07 09:52:21;;;;;;;0.90;0.60;;;22.40;99.90;;;;;;5020391;28;20477;-82
2022/06/07 09:54:54;;;;;;;1.63;0.80;;;22.50;99.90;;;;;;5018034;28;20555;-80
2022/06/07 09:57:35;;;;;;;1.10;0.70;;;22.50;99.90;;;;;;5016474;28;20456;-82
2022/06/07 10:00:18;;;;;;;0.60;0.60;;;22.50;99.90;;;;;;5025117;28;20457;-80
2022/06/07 10:03:18;;;;;;;0.77;0.63;;;22.50;99.90;;;;;;5023239;28;21008;-82
2022/06/07 10:06:00;;;;;;;0.50;0.50;;;22.60;99.90;;;;;;5009427;28;20751;-83
2022/06/07 10:08:56;;;;;;;0.83;0.60;;;22.60;99.90;;;;;;5025049;28;21009;-81
2022/06/07 10:11:29;;;;;;;0.60;0.60;;;22.60;99.90;;;;;;5022335;28;20942;-82
2022/06/07 10:14:15;;;;;;;0.60;0.60;;;22.60;99.90;;;;;;5027645;28;20485;-82
2022/06/07 10:16:54;;;;;;;0.63;0.63;;;22.60;99.90;;;;;;5026567;28;20548;-82
2022/06/07 10:19:35;;;;;;;1.00;0.70;;;22.30;99.90;;;;;;5041970;28;20444;-81
2022/06/07 10:22:18;;;;;;;0.60;0.60;;;22.40;99.90;;;;;;5024356;28;20487;-81
2022/06/07 10:24:59;;;;;;;0.60;0.60;;;22.30;99.90;;;;;;5021469;28;20463;-80
2022/06/07 10:27:35;;;;;;;0.57;0.57;;;22.20;99.90;;;;;;5015933;28;20452;-82
2022/06/07 10:30:15;;;;;;;0.80;0.80;;;22.00;99.90;;;;;;5022886;28;20920;-80
2022/06/07 10:33:09;;;;;;;0.70;0.70;;;21.80;99.90;;;;;;5019425;28;20769;-83
2022/06/07 10:35:46;;;;;;;1.23;0.80;;;21.80;99.90;;;;;;5018815;28;20783;-81
2022/06/07 10:38:30;;;;;;;0.60;0.60;;;21.90;99.90;;;;;;5017703;28;20449;-81
2022/06/07 10:41:06;;;;;;;1.00;0.77;;;22.00;99.90;;;;;;5021655;28;20481;-81
2022/06/07 10:43:51;;;;;;;0.97;0.70;;;21.90;99.90;;;;;;5018794;28;20503;-81
2022/06/07 10:46:21;;;;;;;0.80;0.80;;;21.90;99.90;;;;;;5010672;28;20469;-81
2022/06/07 10:49:07;;;;;;;1.77;0.70;;;21.90;99.90;;;;;;5015945;28;20554;-81
2022/06/07 10:54:30;;;;;;;1.13;0.60;;;22.10;99.90;;;;;;5012816;28;21200;-81
2022/06/07 10:57:05;;;;;;;0.80;0.80;;;22.20;99.90;;;;;;5021223;28;20459;-81
2022/06/07 10:59:38;;;;;;;1.50;0.80;;;22.30;99.90;;;;;;5027091;28;20447;-81
2022/06/07 11:02:24;;;;;;;0.67;0.67;;;22.30;99.90;;;;;;5021295;28;20464;-82
2022/06/07 11:10:38;;;;;;;0.70;0.70;;;22.30;99.90;;;;;;5027187;28;20476;-81
2022/06/07 11:13:19;;;;;;;0.80;0.80;;;22.40;99.90;;;;;;5023941;28;20472;-82
2022/06/07 11:15:56;;;;;;;0.60;0.60;;;22.30;99.90;;;;;;5021851;28;20489;-82
2022/06/07 11:18:27;;;;;;;1.80;0.90;;;22.40;99.90;;;;;;5042071;28;20455;-82
2022/06/07 11:21:24;;;;;;;0.77;0.60;;;22.40;99.90;;;;;;5027954;28;20461;-82
2022/06/07 11:24:04;;;;;;;0.90;0.70;;;22.50;99.90;;;;;;5018643;28;20483;-81
2022/06/07 11:26:40;;;;;;;0.80;0.80;;;22.50;99.90;;;;;;5018385;28;20447;-81
2022/06/07 11:29:19;;;;;;;0.70;0.70;;;22.40;99.90;;;;;;5026054;28;20538;-82
2022/06/07 11:31:47;;;;;;;1.00;0.50;;;22.40;99.90;;;;;;5015616;28;20559;-81
2022/06/07 11:34:23;;;;;;;1.60;0.60;;;22.40;99.90;;;;;;5023590;28;20531;-82
2022/06/07 11:36:56;;;;;;;0.60;0.60;;;22.50;99.90;;;;;;5026026;28;20459;-81
2022/06/07 11:39:41;;;;;;;0.50;0.50;;;22.50;99.90;;;;;;5021865;28;20483;-81
2022/06/07 11:42:31;;;;;;;0.60;0.60;;;22.50;99.90;;;;;;5021349;28;20483;-80
2022/06/07 11:45:23;;;;;;;0.60;0.60;;;22.60;99.90;;;;;;5020593;28;20542;-80
2022/06/07 11:48:16;;;;;;;0.53;0.53;;;22.60;99.90;;;;;;5024372;28;20818;-81
2022/06/07 11:50:54;;;;;;;0.67;0.67;;;22.70;99.90;;;;;;5020357;28;20491;-81
2022/06/07 11:53:27;;;;;;;0.70;0.70;;;22.70;99.90;;;;;;5020338;28;20484;-80
2022/06/07 11:56:15;;;;;;;0.63;0.63;;;22.70;99.90;;;;;;5014864;28;20457;-77
2022/06/07 11:58:55;;;;;;;0.73;0.67;;;22.70;99.90;;;;;;5012196;28;20461;-77
2022/06/07 12:01:34;;;;;;;0.60;0.60;;;22.80;99.90;;;;;;5027342;28;20460;-77
2022/06/07 12:04:32;;;;;;;2.30;1.00;;;22.80;99.90;;;;;;5026153;28;20836;-76
2022/06/07 12:07:15;;;;;;;0.67;0.67;;;22.90;99.90;;;;;;5020970;28;20540;-77
2022/06/07 12:09:49;;;;;;;0.57;0.57;;;22.90;99.90;;;;;;5029751;28;20472;-77
2022/06/07 12:12:24;;;;;;;0.60;0.60;;;23.00;99.90;;;;;;5019884;28;20476;-78
2022/06/07 12:15:01;;;;;;;1.40;0.80;;;23.10;99.90;;;;;;5021115;28;20964;-79
2022/06/07 12:17:31;;;;;;;0.90;0.53;;;23.20;99.90;;;;;;5021245;28;20821;-77
2022/06/07 12:20:00;;;;;;;0.50;0.50;;;23.20;99.90;;;;;;5010776;28;20451;-77
2022/06/07 12:22:41;;;;;;;0.70;0.70;;;23.20;99.90;;;;;;5021521;28;20575;-77
2022/06/07 12:25:17;;;;;;;0.80;0.80;;;23.30;99.90;;;;;;5019194;28;20470;-76
2022/06/07 12:27:47;;;;;;;0.60;0.60;;;23.40;99.90;;;;;;5015671;28;20464;-76
2022/06/07 12:30:24;;;;;;;0.70;0.70;;;23.50;99.90;;;;;;5018119;28;20483;-76
2022/06/07 12:32:56;;;;;;;0.63;0.63;;;23.50;99.90;;;;;;5018159;28;20522;-76
2022/06/07 12:35:26;;;;;;;0.60;0.60;;;23.50;99.90;;;;;;5011611;28;20456;-77
2022/06/07 12:37:57;;;;;;;0.60;0.60;;;23.50;99.90;;;;;;5018354;28;20474;-77
2022/06/07 12:40:31;;;;;;;0.70;0.60;;;23.50;99.90;;;;;;5017048;28;20441;-77
2022/06/07 12:43:00;;;;;;;1.03;0.60;;;23.50;99.90;;;;;;5020663;28;20983;-76
2022/06/07 12:45:33;;;;;;;0.77;0.70;;;23.50;99.90;;;;;;5016008;28;20457;-77
2022/06/07 12:48:13;;;;;;;0.70;0.70;;;23.60;99.90;;;;;;5015086;28;20797;-76
2022/06/07 12:50:43;;;;;;;0.50;0.50;;;23.70;99.90;;;;;;5013048;28;21259;-77
2022/06/07 12:53:19;;;;;;;0.67;0.67;;;23.60;99.90;;;;;;5016288;28;20488;-77
2022/06/07 12:55:56;;;;;;;0.93;0.70;;;23.70;99.90;;;;;;5016387;28;20460;-76
2022/06/07 12:58:28;;;;;;;0.87;0.60;;;23.70;99.90;;;;;;5013810;28;20488;-76
2022/06/07 13:00:57;;;;;;;0.50;0.50;;;23.70;99.90;;;;;;5013363;28;20457;-77
2022/06/07 13:03:31;;;;;;;0.63;0.63;;;23.80;99.90;;;;;;5015771;28;20512;-79
2022/06/07 13:06:03;;;;;;;0.53;0.53;;;23.80;99.90;;;;;;5015888;28;20842;-80
2022/06/07 13:08:35;;;;;;;0.60;0.60;;;23.80;99.90;;;;;;5017924;28;20472;-78
2022/06/07 13:11:06;;;;;;;0.80;0.80;;;23.90;99.90;;;;;;5015879;28;20479;-78
2022/06/07 13:13:37;;;;;;;0.90;0.80;;;23.90;99.90;;;;;;5008529;28;20481;-77
2022/06/07 13:16:31;;;;;;;1.13;0.67;;;24.00;99.90;;;;;;5015382;28;20452;-78
2022/06/07 13:19:05;;;;;;;1.30;0.67;;;24.00;99.90;;;;;;5017920;28;20459;-80
2022/06/07 13:21:36;;;;;;;1.00;0.77;;;24.00;99.90;;;;;;5013132;28;20548;-80
2022/06/07 13:24:05;;;;;;;2.30;0.80;;;24.10;99.90;;;;;;5015882;28;20475;-77
2022/06/07 13:26:42;;;;;;;0.87;0.60;;;24.10;99.90;;;;;;5017159;28;20455;-82
2022/06/07 13:29:18;;;;;;;0.70;0.60;;;24.10;99.90;;;;;;5019545;28;20472;-78
2022/06/07 13:31:53;;;;;;;1.63;0.70;;;24.10;99.90;;;;;;5011705;28;20495;-80
2022/06/07 13:34:27;;;;;;;3.70;0.67;;;24.10;99.90;;;;;;5019493;28;20452;-79
2022/06/07 13:37:12;;;;;;;1.33;0.80;;;24.10;99.90;;;;;;5018263;28;20467;-79
2022/06/07 13:39:42;;;;;;;4.20;0.90;;;24.10;99.90;;;;;;5015510;28;20808;-79